Elk Falls, Kansas
Current Conditions -  °F | °C
As of 5:15 AM on Friday 28 Nov 2014 (Local Time) from KIDP Reporting Station
Clear Clear  
Wind Chill: 28°   Ceiling: Unl
Heat Index: 36°   Visibility: 10mi
Dew Point: 27°   Wind: 12mph
Humidity: 70%   Direction: 180°S
Pressure: 30.12"   Gusts: NA
Location:  37.37°N, 96.19°W
Report Text: KIDP 281115Z AUTO 18010KT 10SM CLR 02/M03 A3012 RMK AO2
Loading
Personal Weather Stations






























Interactive Weather Map New forecast layout! Learn more

10-Day Weather Forecast

Advertisements
Track Severe Weather on mobile